createdAt,value
2016-06-25T00:00:56.137Z,23.61
2016-06-25T00:01:54.911Z,23.57
2016-06-25T00:02:56.151Z,23.57
2016-06-25T00:03:56.180Z,23.55
2016-06-25T00:04:55.600Z,23.55
2016-06-25T00:05:55.619Z,23.5
2016-06-25T00:06:55.647Z,23.61
2016-06-25T00:08:09.946Z,23.65
2016-06-25T00:08:55.700Z,23.61
2016-06-25T00:09:55.721Z,23.61
2016-06-25T00:10:55.144Z,23.61
2016-06-25T00:11:55.770Z,23.6
2016-06-25T00:12:55.807Z,23.61
2016-06-25T00:13:55.865Z,23.53
2016-06-25T00:15:10.742Z,23.57
2016-06-25T00:15:56.516Z,23.6
2016-06-25T00:16:55.919Z,23.47
2016-06-25T00:17:55.954Z,23.46
2016-06-25T00:19:10.269Z,23.4
2016-06-25T00:20:56.039Z,23.57
2016-06-25T00:21:56.668Z,23.5
2016-06-25T00:22:55.485Z,23.6
2016-06-25T00:23:56.719Z,23.48
2016-06-25T00:24:56.760Z,23.57
2016-06-25T00:25:55.562Z,23.6
2016-06-25T00:26:56.189Z,23.54
2016-06-25T00:27:55.618Z,23.54
2016-06-25T00:28:56.863Z,23.42
2016-06-25T00:29:56.298Z,23.54
2016-06-25T00:31:10.592Z,23.43
2016-06-25T00:31:56.985Z,23.43
2016-06-25T00:33:11.246Z,23.38
2016-06-25T00:33:56.384Z,23.4
2016-06-25T00:34:55.821Z,23.42
2016-06-25T00:35:57.048Z,23.23
2016-06-25T00:36:57.082Z,23.36
2016-06-25T00:37:56.509Z,23.33
2016-06-25T00:38:56.532Z,23.22
2016-06-25T00:39:56.553Z,23.28
2016-06-25T00:40:56.575Z,23.32
2016-06-25T00:41:56.626Z,23.33
2016-06-25T00:42:56.646Z,23.23
2016-06-25T00:43:57.270Z,23.25
2016-06-25T00:44:56.706Z,23.15
2016-06-25T00:45:56.722Z,23.16
2016-06-25T00:47:57.375Z,23.16
2016-06-25T00:48:57.414Z,23.12
2016-06-25T00:50:11.709Z,23.12
2016-06-25T00:50:57.453Z,23.1
2016-06-25T00:51:57.499Z,23.19
2016-06-25T00:52:56.902Z,23.12
2016-06-25T00:53:56.960Z,23.25
2016-06-25T00:55:11.856Z,23.19
2016-06-25T00:55:56.998Z,23.15
2016-06-25T00:57:57.659Z,23.05
2016-06-25T00:58:57.079Z,23.01
2016-06-25T00:59:57.741Z,23.01
2016-06-25T01:01:12.026Z,23
2016-06-25T01:01:57.771Z,23.01
2016-06-25T01:03:12.061Z,22.94
2016-06-25T01:03:57.207Z,22.91
2016-06-25T01:04:57.256Z,22.95
2016-06-25T01:05:57.885Z,22.92
2016-06-25T01:06:57.914Z,22.97
2016-06-25T01:07:56.701Z,22.97
2016-06-25T01:08:57.343Z,23
2016-06-25T01:10:12.249Z,23.01
2016-06-25T01:10:57.385Z,23.07
2016-06-25T01:12:57.442Z,23.05
2016-06-25T01:13:56.877Z,22.98
2016-06-25T01:14:58.114Z,22.91
2016-06-25T01:15:57.521Z,23.01
2016-06-25T01:16:58.167Z,22.95
2016-06-25T01:18:12.507Z,22.98
2016-06-25T01:18:57.621Z,22.92
2016-06-25T01:19:57.023Z,22.92
2016-06-25T01:20:57.673Z,22.97
2016-06-25T01:21:57.688Z,22.91
2016-06-25T01:22:57.119Z,22.98
2016-06-25T01:24:58.411Z,22.79
2016-06-25T01:25:57.216Z,22.8
2016-06-25T01:27:58.472Z,22.91
2016-06-25T01:28:58.498Z,22.83
2016-06-25T01:29:57.926Z,22.77
2016-06-25T01:30:57.332Z,22.73
2016-06-25T01:31:57.364Z,22.68
2016-06-25T01:32:58.601Z,22.72
2016-06-25T01:33:58.636Z,22.72
2016-06-25T01:34:58.052Z,22.72
2016-06-25T01:35:58.088Z,22.64
2016-06-25T01:36:58.107Z,22.65
2016-06-25T01:38:13.010Z,22.67
2016-06-25T01:38:58.765Z,22.64
2016-06-25T01:40:57.615Z,22.61
2016-06-25T01:41:58.854Z,22.52
2016-06-25T01:42:57.661Z,22.45
2016-06-25T01:43:58.294Z,22.45
2016-06-25T01:44:58.918Z,22.4
2016-06-25T01:45:58.335Z,22.43
2016-06-25T01:46:58.366Z,22.45
2016-06-25T01:47:57.793Z,22.43
2016-06-25T01:48:58.425Z,22.45
2016-06-25T01:50:12.720Z,22.47
2016-06-25T01:50:58.485Z,22.47
2016-06-25T01:51:59.119Z,22.46
2016-06-25T01:52:59.158Z,22.58
2016-06-25T01:53:59.170Z,22.51
2016-06-25T01:54:59.196Z,22.57
2016-06-25T01:55:58.606Z,22.54
2016-06-25T01:56:58.650Z,22.51
2016-06-25T01:57:58.678Z,22.55
2016-06-25T01:58:58.725Z,22.49
2016-06-25T01:59:59.336Z,22.42
2016-06-25T02:00:58.151Z,22.42
2016-06-25T02:02:59.500Z,22.45
2016-06-25T02:03:58.842Z,22.46
2016-06-25T02:05:13.137Z,22.45
2016-06-25T02:06:13.772Z,22.36
2016-06-25T02:06:59.526Z,22.4
2016-06-25T02:07:58.958Z,22.45
2016-06-25T02:08:58.354Z,22.45
2016-06-25T02:09:59.000Z,22.42
2016-06-25T02:11:13.299Z,22.4
2016-06-25T02:11:59.663Z,22.36
2016-06-25T02:13:59.116Z,22.24
2016-06-25T02:14:59.745Z,22.36
2016-06-25T02:15:59.158Z,22.3
2016-06-25T02:16:59.192Z,22.37
2016-06-25T02:17:59.216Z,22.31
2016-06-25T02:18:59.845Z,22.27
2016-06-25T02:19:58.665Z,22.25
2016-06-25T02:20:59.900Z,22.27
2016-06-25T02:22:14.205Z,22.25
2016-06-25T02:24:14.273Z,22.39
2016-06-25T02:24:59.402Z,22.35
2016-06-25T02:25:59.436Z,22.33
2016-06-25T02:27:00.079Z,22.31
2016-06-25T02:29:00.117Z,22.3
2016-06-25T02:29:59.535Z,22.25
2016-06-25T02:31:00.175Z,22.22
2016-06-25T02:31:59.594Z,22.15
2016-06-25T02:33:14.514Z,22.21
2016-06-25T02:34:00.255Z,22.25
2016-06-25T02:34:59.717Z,22.24
2016-06-25T02:36:00.317Z,22.12
2016-06-25T02:37:00.357Z,22.17
2016-06-25T02:38:14.029Z,22.12
2016-06-25T02:39:14.662Z,22.17
2016-06-25T02:39:59.804Z,22.12
2016-06-25T02:41:14.706Z,22.03
2016-06-25T02:42:00.485Z,22.03
2016-06-25T02:42:59.890Z,21.99
2016-06-25T02:43:59.914Z,21.99
2016-06-25T02:44:59.970Z,21.86
2016-06-25T02:45:59.989Z,21.92
2016-06-25T02:46:59.983Z,21.91
2016-06-25T02:48:00.014Z,21.94
2016-06-25T02:49:00.661Z,21.92
2016-06-25T02:50:00.683Z,21.99
2016-06-25T02:51:00.092Z,21.9
2016-06-25T02:52:00.130Z,21.82
2016-06-25T02:53:15.045Z,21.82
2016-06-25T02:54:00.786Z,21.84
2016-06-25T02:55:00.221Z,21.8
2016-06-25T02:57:00.893Z,21.8
2016-06-25T02:58:00.917Z,21.82
2016-06-25T02:59:00.314Z,21.75
2016-06-25T03:00:00.949Z,21.82
2016-06-25T03:01:14.636Z,21.75
2016-06-25T03:02:01.014Z,21.75
2016-06-25T03:02:59.814Z,21.8
2016-06-25T03:04:01.063Z,21.82
2016-06-25T03:05:00.471Z,21.82
2016-06-25T03:05:59.891Z,21.79
2016-06-25T03:07:01.139Z,21.79
2016-06-25T03:07:59.950Z,21.77
2016-06-25T03:09:14.860Z,21.84
2016-06-25T03:10:00.630Z,21.83
2016-06-25T03:11:15.519Z,21.82
2016-06-25T03:12:01.277Z,21.82
2016-06-25T03:13:00.693Z,21.84
2016-06-25T03:14:01.319Z,21.92
2016-06-25T03:15:01.337Z,21.84
2016-06-25T03:16:00.773Z,21.83
2016-06-25T03:17:15.672Z,21.84
2016-06-25T03:18:01.075Z,21.91
2016-06-25T03:19:00.847Z,21.91
2016-06-25T03:20:01.762Z,21.88
2016-06-25T03:21:01.667Z,21.79
2016-06-25T03:22:01.551Z,21.83
2016-06-25T03:23:00.960Z,21.9
2016-06-25T03:24:00.990Z,21.9
2016-06-25T03:25:15.277Z,21.88
2016-06-25T03:26:01.071Z,21.82
2016-06-25T03:28:01.699Z,21.91
2016-06-25T03:29:01.748Z,21.88
2016-06-25T03:31:01.785Z,21.96
2016-06-25T03:32:01.200Z,21.88
2016-06-25T03:33:01.242Z,21.92
2016-06-25T03:34:01.875Z,21.88
2016-06-25T03:35:15.567Z,21.96
2016-06-25T03:36:01.910Z,21.98
2016-06-25T03:37:01.966Z,21.91
2016-06-25T03:38:01.971Z,21.86
2016-06-25T03:39:01.442Z,21.98
2016-06-25T03:40:02.049Z,21.98
2016-06-25T03:41:15.720Z,22.1
2016-06-25T03:42:02.077Z,22.07
2016-06-25T03:43:16.373Z,22.1
2016-06-25T03:44:02.139Z,22.09
2016-06-25T03:45:01.546Z,22.25
2016-06-25T03:46:02.187Z,22.18
2016-06-25T03:47:00.999Z,22.17
2016-06-25T03:48:01.639Z,22.2
2016-06-25T03:49:02.263Z,22.18
2016-06-25T03:50:01.689Z,22.21
2016-06-25T03:51:01.703Z,22.18
2016-06-25T03:52:02.347Z,22.17
2016-06-25T03:53:02.373Z,22.24
2016-06-25T03:54:02.404Z,22.25
2016-06-25T03:55:01.819Z,22.2
2016-06-25T03:56:01.245Z,22.17
2016-06-25T03:57:16.138Z,22.17
2016-06-25T03:59:02.530Z,22.25
2016-06-25T04:00:01.975Z,22.27
2016-06-25T04:01:01.994Z,22.35
2016-06-25T04:02:01.403Z,22.35
2016-06-25T04:03:16.915Z,22.4
2016-06-25T04:04:02.678Z,22.39
2016-06-25T04:05:02.685Z,22.42
2016-06-25T04:06:02.114Z,22.39
2016-06-25T04:07:02.783Z,22.39
2016-06-25T04:08:02.778Z,22.51
2016-06-25T04:09:01.581Z,22.46
2016-06-25T04:10:02.247Z,22.49
2016-06-25T04:11:02.253Z,22.58
2016-06-25T04:12:02.274Z,22.95
2016-06-25T04:13:16.573Z,23.78
2016-06-25T04:14:02.937Z,24.37
2016-06-25T04:15:02.374Z,24.95
2016-06-25T04:16:03.062Z,25.52
2016-06-25T04:18:02.462Z,26.5
2016-06-25T04:19:02.489Z,26.85
2016-06-25T04:20:03.106Z,27.34
2016-06-25T04:21:03.131Z,28
2016-06-25T04:22:02.562Z,28.41
2016-06-25T04:23:02.575Z,28.49
2016-06-25T04:24:02.002Z,28.76
2016-06-25T04:25:03.257Z,28.88
2016-06-25T04:26:16.952Z,29.05
2016-06-25T04:27:02.095Z,29.11
2016-06-25T04:28:17.007Z,29.34
2016-06-25T04:29:02.159Z,29.53
2016-06-25T04:30:03.405Z,29.68
2016-06-25T04:31:03.462Z,29.83
2016-06-25T04:32:03.465Z,30.1
2016-06-25T04:33:02.286Z,30.77
2016-06-25T04:34:03.524Z,31.35
2016-06-25T04:35:03.565Z,31.44
2016-06-25T04:36:02.979Z,31.72
2016-06-25T04:37:02.396Z,31.57
2016-06-25T04:38:03.645Z,31.8
2016-06-25T04:39:03.063Z,31.76
2016-06-25T04:40:02.498Z,31.43
2016-06-25T04:41:03.140Z,31.78
2016-06-25T04:42:03.782Z,31.72
2016-06-25T04:43:03.229Z,31.38
2016-06-25T04:44:03.240Z,31.1
2016-06-25T04:46:18.178Z,31.13
2016-06-25T04:47:03.378Z,31.32
2016-06-25T04:48:03.346Z,31.1
2016-06-25T04:49:04.005Z,31.35
2016-06-25T04:50:04.065Z,31.76
2016-06-25T04:51:03.459Z,32.35
2016-06-25T04:52:03.494Z,32.55
2016-06-25T04:53:02.907Z,32.84
2016-06-25T04:54:03.541Z,33.07
2016-06-25T04:55:04.201Z,33.56
2016-06-25T04:56:03.626Z,33.72
2016-06-25T04:57:03.038Z,33.91
2016-06-25T04:58:03.690Z,33.88
2016-06-25T05:00:18.027Z,34.47
2016-06-25T05:01:04.434Z,34.8
2016-06-25T05:02:18.703Z,34.88
2016-06-25T05:03:03.859Z,34.88
2016-06-25T05:04:18.767Z,34.65
2016-06-25T05:05:18.191Z,34.91
2016-06-25T05:06:03.382Z,34.94
2016-06-25T05:07:03.994Z,34.97
2016-06-25T05:08:04.033Z,34.87
2016-06-25T05:09:04.683Z,35.26
2016-06-25T05:10:04.343Z,35.34
2016-06-25T05:11:03.527Z,35.43
2016-06-25T05:12:04.158Z,35.48
2016-06-25T05:13:04.811Z,35.29
2016-06-25T05:15:03.673Z,35.29
2016-06-25T05:16:18.578Z,35.56
2016-06-25T05:17:04.338Z,35.85
2016-06-25T05:18:03.808Z,35.68
2016-06-25T05:19:05.019Z,36.13
2016-06-25T05:20:05.065Z,35.6
2016-06-25T05:21:04.466Z,35.82
2016-06-25T05:22:04.517Z,35.8
2016-06-25T05:23:04.562Z,36.13
2016-06-25T05:24:04.589Z,36.47
2016-06-25T05:25:04.022Z,36.49
2016-06-25T05:26:04.048Z,36.57
2016-06-25T05:27:04.718Z,37.22
2016-06-25T05:28:04.721Z,37.36
2016-06-25T05:29:05.383Z,37.74
2016-06-25T05:30:04.816Z,37.86
2016-06-25T05:31:04.234Z,37.85
2016-06-25T05:32:19.149Z,37.49
2016-06-25T05:33:19.789Z,37.22
2016-06-25T05:34:04.960Z,37.57
2016-06-25T05:35:04.989Z,37.81
2016-06-25T05:36:05.649Z,37.41
2016-06-25T05:38:04.508Z,37.57
2016-06-25T05:39:05.745Z,37.51
2016-06-25T05:40:05.166Z,37.88
2016-06-25T05:41:04.584Z,38.06
2016-06-25T05:42:05.855Z,38.09
2016-06-25T05:44:05.298Z,38.26
2016-06-25T05:45:04.738Z,38.25
2016-06-25T05:46:05.376Z,38.32
2016-06-25T05:47:06.033Z,38.25
2016-06-25T05:48:20.344Z,37.98
2016-06-25T05:49:06.121Z,38.28
2016-06-25T05:50:05.533Z,38.52
2016-06-25T05:51:06.187Z,38.69
2016-06-25T05:53:06.260Z,38.78
2016-06-25T05:54:06.300Z,38.86
2016-06-25T05:56:05.763Z,39.69
2016-06-25T05:57:06.400Z,40.16
2016-06-25T05:58:05.213Z,40.13
2016-06-25T05:59:06.487Z,40
2016-06-25T06:00:05.917Z,40.04
2016-06-25T06:01:05.996Z,40.13
2016-06-25T06:02:06.603Z,39.96
2016-06-25T06:03:20.903Z,39.45
2016-06-25T06:04:06.051Z,39.52
2016-06-25T06:05:05.494Z,39.96
2016-06-25T06:06:05.514Z,40.34
2016-06-25T06:09:06.260Z,40.25
2016-06-25T06:10:21.177Z,40.34
2016-06-25T06:11:05.733Z,40.5
2016-06-25T06:12:05.761Z,40.51
2016-06-25T06:13:06.416Z,40.48
2016-06-25T06:14:07.049Z,40.35
2016-06-25T06:15:20.758Z,40.55
2016-06-25T06:16:05.924Z,40.35
2016-06-25T06:17:07.175Z,39.66
2016-06-25T06:18:07.213Z,40
2016-06-25T06:19:06.623Z,39.75
2016-06-25T06:20:06.681Z,40.01
2016-06-25T06:21:07.309Z,40.35
2016-06-25T06:22:07.400Z,40.22
2016-06-25T06:23:06.191Z,40.57
2016-06-25T06:24:07.434Z,40.18
2016-06-25T06:25:07.495Z,41.04
2016-06-25T06:26:07.518Z,40.89
2016-06-25T06:28:06.388Z,41.51
2016-06-25T06:29:07.624Z,41.63
2016-06-25T06:30:07.059Z,41.51
2016-06-25T06:31:07.089Z,41.36
2016-06-25T06:32:07.130Z,41.69
2016-06-25T06:33:07.175Z,41.57
2016-06-25T06:34:07.213Z,41.52
2016-06-25T06:35:21.524Z,40.96
2016-06-25T06:36:07.897Z,40.26
2016-06-25T06:37:07.927Z,39.52
2016-06-25T06:38:21.632Z,39.01
2016-06-25T06:39:07.400Z,38.68
2016-06-25T06:40:08.056Z,39.01
2016-06-25T06:41:07.507Z,39.29
2016-06-25T06:42:07.503Z,39.36
2016-06-25T06:43:08.183Z,39.98
2016-06-25T06:45:08.229Z,40.73
2016-06-25T06:46:08.274Z,40.88
2016-06-25T06:47:07.092Z,40.95
2016-06-25T06:48:08.395Z,41.32
2016-06-25T06:49:07.782Z,41.3
2016-06-25T06:50:07.818Z,41.54
2016-06-25T06:51:22.748Z,41.41
2016-06-25T06:52:07.326Z,41.52
2016-06-25T06:53:08.537Z,41.44
2016-06-25T06:54:08.591Z,42.01
2016-06-25T06:55:08.616Z,41.9
2016-06-25T06:56:07.439Z,41.74
2016-06-25T06:57:08.719Z,41.33
2016-06-25T06:58:07.570Z,40.83
2016-06-25T06:59:07.552Z,39.52
2016-06-25T07:00:08.216Z,38.83
2016-06-25T07:02:08.305Z,39.36
2016-06-25T07:03:08.934Z,39.44
2016-06-25T07:04:08.370Z,39.33
2016-06-25T07:06:22.725Z,39.52
2016-06-25T07:08:08.530Z,40.25
2016-06-25T07:09:07.946Z,40.31
2016-06-25T07:10:09.220Z,40.72
2016-06-25T07:11:09.248Z,40.39
2016-06-25T07:13:22.982Z,40.27
2016-06-25T07:14:09.362Z,40.23
2016-06-25T07:15:08.786Z,40.41
2016-06-25T07:17:09.475Z,39.07
2016-06-25T07:18:08.295Z,39.59
2016-06-25T07:19:08.935Z,39.72
2016-06-25T07:20:09.585Z,39.55
2016-06-25T07:21:09.029Z,39.94
2016-06-25T07:22:08.451Z,40.31
2016-06-25T07:23:23.989Z,40.06
2016-06-25T07:24:09.150Z,39.14
2016-06-25T07:26:09.834Z,39.01
2016-06-25T07:27:23.526Z,39.06
2016-06-25T07:28:08.689Z,39.21
2016-06-25T07:29:09.335Z,39.91
2016-06-25T07:30:09.371Z,40.35
2016-06-25T07:31:09.404Z,40.57
2016-06-25T07:33:08.885Z,40.79
2016-06-25T07:34:08.929Z,41.23
2016-06-25T07:35:10.185Z,41.37
2016-06-25T07:36:09.602Z,41.35
2016-06-25T07:37:10.242Z,41.45
2016-06-25T07:38:23.953Z,41.87
2016-06-25T07:39:09.107Z,41.54
2016-06-25T07:40:09.136Z,41.83
2016-06-25T07:42:09.213Z,41.96
2016-06-25T07:43:09.258Z,41.87
2016-06-25T07:44:10.518Z,41.8
2016-06-25T07:45:09.943Z,41.21
2016-06-25T07:46:09.985Z,41.2
2016-06-25T07:47:10.627Z,41.64
2016-06-25T07:48:10.664Z,41.57
2016-06-25T07:49:10.698Z,41.6
2016-06-25T07:50:09.517Z,42.08
2016-06-25T07:51:10.171Z,42.16
2016-06-25T07:52:10.821Z,42.2
2016-06-25T07:53:09.641Z,41.82
2016-06-25T07:54:10.287Z,41.73
2016-06-25T07:55:10.327Z,41.98
2016-06-25T07:56:10.973Z,41.87
2016-06-25T07:57:10.399Z,41.6
2016-06-25T07:58:10.448Z,40.83
2016-06-25T07:59:10.482Z,40.2
2016-06-25T08:00:10.546Z,40.42
2016-06-25T08:02:11.213Z,41.01
2016-06-25T08:03:10.647Z,41.29
2016-06-25T08:04:11.299Z,41.62
2016-06-25T08:05:11.323Z,42.17
2016-06-25T08:06:10.760Z,42.59
2016-06-25T08:07:10.806Z,42.16
2016-06-25T08:08:10.212Z,41.47
2016-06-25T08:09:11.487Z,41.37
2016-06-25T08:10:25.182Z,41.49
2016-06-25T08:11:10.951Z,41.76
2016-06-25T08:12:25.870Z,42.25
2016-06-25T08:13:10.429Z,42.47
2016-06-25T08:14:11.671Z,42.49
2016-06-25T08:15:11.138Z,42.7
2016-06-25T08:16:11.137Z,42.49
2016-06-25T08:17:11.797Z,42.27
2016-06-25T08:19:11.867Z,42.55
2016-06-25T08:20:11.332Z,42.36
2016-06-25T08:21:11.952Z,42.45
2016-06-25T08:22:10.786Z,42.11
2016-06-25T08:23:12.037Z,41.63
2016-06-25T08:24:12.082Z,41.7
2016-06-25T08:25:11.552Z,41.94
2016-06-25T08:26:26.487Z,42.2
2016-06-25T08:27:11.576Z,41.32
2016-06-25T08:28:12.311Z,40.88
2016-06-25T08:29:26.522Z,41.6
2016-06-25T08:30:11.685Z,41.33
2016-06-25T08:31:12.323Z,41.1
2016-06-25T08:32:26.027Z,40.77
2016-06-25T08:33:11.799Z,41.13
2016-06-25T08:34:12.447Z,41.87
2016-06-25T08:35:11.267Z,41.9
2016-06-25T08:36:11.906Z,41.87
2016-06-25T08:37:11.959Z,41.07
2016-06-25T08:38:11.988Z,40.83
2016-06-25T08:40:12.067Z,41.17
2016-06-25T08:41:11.490Z,41.63
2016-06-25T08:42:27.019Z,41.84
2016-06-25T08:43:11.563Z,41.87
2016-06-25T08:45:12.854Z,42.21
2016-06-25T08:46:12.297Z,42.18
2016-06-25T08:47:12.965Z,41.99
2016-06-25T08:48:13.021Z,41.67
2016-06-25T08:49:13.009Z,42.02
2016-06-25T08:50:12.439Z,41.82
2016-06-25T08:51:12.479Z,40.87
2016-06-25T08:52:26.790Z,40.76
2016-06-25T08:53:11.943Z,41.07
2016-06-25T08:54:12.608Z,41.26
2016-06-25T08:55:13.243Z,41.11
2016-06-25T08:56:12.063Z,41.18
2016-06-25T08:57:13.326Z,41.37
2016-06-25T08:58:27.008Z,41.29
2016-06-25T08:59:12.796Z,40.98
2016-06-25T09:00:13.439Z,40.77
2016-06-25T09:01:27.734Z,41.18
2016-06-25T09:02:12.896Z,41.36
2016-06-25T09:03:12.932Z,41.16
2016-06-25T09:05:13.630Z,41.42
2016-06-25T09:06:13.071Z,41.83
2016-06-25T09:07:13.699Z,42.16
2016-06-25T09:08:13.123Z,42.46
2016-06-25T09:10:13.236Z,42.12
2016-06-25T09:11:28.107Z,42.21
2016-06-25T09:12:12.660Z,42.06
2016-06-25T09:13:27.570Z,41.96
2016-06-25T09:14:13.336Z,41.98
2016-06-25T09:15:13.997Z,42.23
2016-06-25T09:16:13.410Z,42.28
2016-06-25T09:17:14.061Z,42.25
2016-06-25T09:18:14.109Z,42.3
2016-06-25T09:19:12.923Z,42.17
2016-06-25T09:20:13.567Z,41.98
2016-06-25T09:21:13.611Z,41.99
2016-06-25T09:23:14.288Z,42.31
2016-06-25T09:24:13.734Z,42.02
2016-06-25T09:25:13.761Z,41.9
2016-06-25T09:26:13.174Z,41.9
2016-06-25T09:27:13.847Z,41.63
2016-06-25T09:28:13.865Z,41.08
2016-06-25T09:29:14.510Z,41.04
2016-06-25T09:30:13.327Z,41.47
2016-06-25T09:31:13.963Z,41.8
2016-06-25T09:32:14.627Z,41.6
2016-06-25T09:33:14.059Z,41.69
2016-06-25T09:34:14.702Z,41.52
2016-06-25T09:35:14.159Z,41.55
2016-06-25T09:36:14.770Z,41.13
2016-06-25T09:37:14.216Z,41.32
2016-06-25T09:38:14.235Z,41.3
2016-06-25T09:39:14.291Z,41.58
2016-06-25T09:40:14.910Z,41.48
2016-06-25T09:41:14.350Z,41.33
2016-06-25T09:42:14.380Z,41.3
2016-06-25T09:43:13.801Z,42.09
2016-06-25T09:44:15.052Z,42.23
2016-06-25T09:45:28.757Z,41.67
2016-06-25T09:47:14.546Z,41.86
2016-06-25T09:48:14.601Z,41.52
2016-06-25T09:49:15.239Z,41.57
2016-06-25T09:50:14.663Z,41.84
2016-06-25T09:51:14.699Z,41.94
2016-06-25T09:52:14.748Z,41.37
2016-06-25T09:53:14.775Z,41.57
2016-06-25T09:54:14.823Z,41.14
2016-06-25T09:55:14.849Z,40.64
2016-06-25T09:57:14.315Z,41.17
2016-06-25T09:58:29.839Z,41.17
2016-06-25T09:59:15.609Z,41.14
2016-06-25T10:00:15.637Z,40.99
2016-06-25T10:01:29.939Z,40.95
2016-06-25T10:02:14.487Z,41.07
2016-06-25T10:03:15.734Z,41.11
2016-06-25T10:04:15.793Z,41.29
2016-06-25T10:05:15.816Z,41.8
2016-06-25T10:06:15.904Z,42.05
2016-06-25T10:07:15.898Z,42.3
2016-06-25T10:08:15.379Z,42.05
2016-06-25T10:09:15.354Z,41.71
2016-06-25T10:10:16.007Z,41.62
2016-06-25T10:12:16.068Z,40.92
2016-06-25T10:13:14.891Z,40.98
2016-06-25T10:14:15.536Z,41.08
2016-06-25T10:15:16.186Z,41.08
2016-06-25T10:16:16.262Z,40.88
2016-06-25T10:17:29.910Z,40.76
2016-06-25T10:18:16.279Z,40.58
2016-06-25T10:19:15.110Z,40.25
2016-06-25T10:20:16.367Z,40.46
2016-06-25T10:21:15.798Z,41.1
2016-06-25T10:22:15.824Z,41.3
2016-06-25T10:23:15.875Z,41.57
2016-06-25T10:24:15.898Z,41.33
2016-06-25T10:25:16.554Z,41.3
2016-06-25T10:26:16.584Z,41.29
2016-06-25T10:27:16.610Z,41.48
2016-06-25T10:28:15.443Z,41.69
2016-06-25T10:29:16.708Z,41.96
2016-06-25T10:30:30.386Z,42.06
2016-06-25T10:31:16.763Z,41.78
2016-06-25T10:32:30.454Z,41.29
2016-06-25T10:33:31.098Z,41.47
2016-06-25T10:34:16.265Z,41.07
2016-06-25T10:35:16.298Z,40.92
2016-06-25T10:36:16.958Z,41.01
2016-06-25T10:37:15.805Z,40.94
2016-06-25T10:38:16.403Z,40.83
2016-06-25T10:39:16.446Z,40.46
2016-06-25T10:40:16.469Z,40.38
2016-06-25T10:41:16.503Z,39.79
2016-06-25T10:42:17.144Z,39.7
2016-06-25T10:43:17.184Z,39.57
2016-06-25T10:44:16.615Z,39.45
2016-06-25T10:45:31.531Z,39.32
2016-06-25T10:46:16.100Z,39.43
2016-06-25T10:48:31.023Z,38.96
2016-06-25T10:49:16.782Z,39.04
2016-06-25T10:50:16.243Z,39.14
2016-06-25T10:51:16.857Z,39.29
2016-06-25T10:52:16.289Z,39.13
2016-06-25T10:53:16.938Z,39.11
2016-06-25T10:54:16.963Z,39.01
2016-06-25T10:55:17.026Z,38.71
2016-06-25T10:56:17.043Z,38.34
2016-06-25T10:57:17.669Z,38.53
2016-06-25T10:58:17.116Z,38.78
2016-06-25T10:59:17.785Z,38.95
2016-06-25T11:00:17.188Z,39.16
2016-06-25T11:01:17.818Z,39.33
2016-06-25T11:02:32.130Z,39.66
2016-06-25T11:03:17.899Z,39.67
2016-06-25T11:04:17.946Z,39.47
2016-06-25T11:05:17.359Z,39.51
2016-06-25T11:06:16.783Z,39.69
2016-06-25T11:07:16.831Z,39.97
2016-06-25T11:08:17.450Z,39.85
2016-06-25T11:10:17.536Z,39.96
2016-06-25T11:11:17.556Z,39.94
2016-06-25T11:13:18.255Z,40.26
2016-06-25T11:14:17.068Z,39.96
2016-06-25T11:15:17.105Z,39.98
2016-06-25T11:16:17.749Z,39.81
2016-06-25T11:17:17.810Z,39.52
2016-06-25T11:18:18.440Z,39.09
2016-06-25T11:19:17.846Z,38.91
2016-06-25T11:20:32.763Z,38.96
2016-06-25T11:22:32.827Z,38.65
2016-06-25T11:23:17.995Z,38.56
2016-06-25T11:24:18.634Z,38.44
2016-06-25T11:25:18.670Z,38.38
2016-06-25T11:26:18.089Z,38.09
2016-06-25T11:27:18.750Z,37.98
2016-06-25T11:28:18.770Z,37.79
2016-06-25T11:29:32.471Z,37.64
2016-06-25T11:30:18.838Z,37.47
2016-06-25T11:31:18.261Z,37.59
2016-06-25T11:32:17.691Z,37.29
2016-06-25T11:33:33.209Z,37.15
2016-06-25T11:34:17.776Z,37.2
2016-06-25T11:35:18.403Z,37.21
2016-06-25T11:36:33.311Z,37.13
2016-06-25T11:37:18.466Z,37.02
2016-06-25T11:38:19.114Z,36.9
2016-06-25T11:39:18.571Z,36.8
2016-06-25T11:40:17.970Z,36.66
2016-06-25T11:41:18.610Z,36.49
2016-06-25T11:42:18.027Z,35.92
2016-06-25T11:43:18.677Z,35.06
2016-06-25T11:44:19.319Z,33.69
2016-06-25T11:45:18.740Z,32.25
2016-06-25T11:46:18.792Z,31.51
2016-06-25T11:47:33.680Z,30.91
2016-06-25T11:48:33.717Z,29.97
2016-06-25T11:49:19.485Z,29.36
2016-06-25T11:50:18.907Z,28.95
2016-06-25T11:52:33.261Z,28.29
2016-06-25T11:53:18.402Z,28.02
2016-06-25T11:54:19.031Z,27.69
2016-06-25T11:55:19.096Z,27.67
2016-06-25T11:56:18.498Z,27.65
2016-06-25T11:57:19.149Z,27.77
2016-06-25T11:58:19.172Z,27.41
2016-06-25T11:59:18.597Z,27.4
2016-06-25T12:00:19.237Z,27.69
2016-06-25T12:02:18.687Z,27.97
2016-06-25T12:03:19.937Z,28.31
2016-06-25T12:05:19.987Z,28.77
2016-06-25T12:06:20.084Z,28.89
2016-06-25T12:07:19.475Z,29.28
2016-06-25T12:08:33.741Z,29.31
2016-06-25T12:09:19.522Z,29.31
2016-06-25T12:10:19.605Z,29.36
2016-06-25T12:11:20.196Z,29.6
2016-06-25T12:12:33.865Z,29.74
2016-06-25T12:13:19.624Z,29.9
2016-06-25T12:14:34.534Z,29.87
2016-06-25T12:15:20.295Z,29.85
2016-06-25T12:16:20.339Z,30.1
2016-06-25T12:17:19.761Z,30.29
2016-06-25T12:18:19.779Z,30.43
2016-06-25T12:19:20.448Z,30.61
2016-06-25T12:20:19.852Z,30.72
2016-06-25T12:21:19.899Z,30.75
2016-06-25T12:22:19.305Z,30.92
2016-06-25T12:23:34.218Z,31.06
2016-06-25T12:24:20.642Z,31.14
2016-06-25T12:25:20.615Z,31.2
2016-06-25T12:26:20.040Z,31.31
2016-06-25T12:27:20.681Z,31.47
2016-06-25T12:28:19.504Z,31.61
2016-06-25T12:29:20.784Z,31.75
2016-06-25T12:30:19.551Z,31.99
2016-06-25T12:31:20.207Z,32.23
2016-06-25T12:32:20.234Z,32.29
2016-06-25T12:33:20.906Z,32.41
2016-06-25T12:34:20.307Z,32.51
2016-06-25T12:35:20.351Z,32.62
2016-06-25T12:36:19.756Z,32.56
2016-06-25T12:37:19.791Z,32.51
2016-06-25T12:38:20.424Z,32.55
2016-06-25T12:39:21.067Z,32.85
2016-06-25T12:40:20.482Z,32.87
2016-06-25T12:41:19.913Z,33.01
2016-06-25T12:42:19.948Z,32.97
2016-06-25T12:43:21.198Z,33.19
2016-06-25T12:44:20.015Z,33.31
2016-06-25T12:45:20.655Z,33.42
2016-06-25T12:46:20.080Z,33.41
2016-06-25T12:47:20.708Z,33.28
2016-06-25T12:48:20.807Z,33.39
2016-06-25T12:50:21.419Z,33.32
2016-06-25T12:51:21.475Z,33.23
2016-06-25T12:52:20.886Z,33.03
2016-06-25T12:53:21.520Z,33.07
2016-06-25T12:54:21.561Z,33.04
2016-06-25T12:55:35.847Z,33.01
2016-06-25T12:56:21.617Z,33.14
2016-06-25T12:57:20.438Z,33.23
2016-06-25T12:58:21.078Z,33.39
2016-06-25T12:59:21.719Z,33.44
2016-06-25T13:00:21.131Z,33.45
2016-06-25T13:01:20.564Z,33.47
2016-06-25T13:02:21.232Z,33.41
2016-06-25T13:04:21.296Z,33.32
2016-06-25T13:05:21.301Z,33.28
2016-06-25T13:06:21.329Z,33.23
2016-06-25T13:07:21.992Z,33.22
2016-06-25T13:08:22.016Z,33.19
2016-06-25T13:09:21.440Z,33.45
2016-06-25T13:10:21.474Z,33.45
2016-06-25T13:11:35.762Z,33.53
2016-06-25T13:12:22.143Z,33.69
2016-06-25T13:13:22.231Z,33.66
2016-06-25T13:14:22.199Z,33.53
2016-06-25T13:15:21.635Z,33.71
2016-06-25T13:16:21.651Z,33.78
2016-06-25T13:17:21.094Z,33.78
2016-06-25T13:18:22.335Z,33.71
2016-06-25T13:20:21.177Z,33.35
2016-06-25T13:21:22.445Z,33.42
2016-06-25T13:22:36.737Z,33.45
2016-06-25T13:23:36.758Z,33.68
2016-06-25T13:24:22.518Z,33.71
2016-06-25T13:25:21.974Z,33.61
2016-06-25T13:26:36.250Z,33.81
2016-06-25T13:27:36.275Z,34.06
2016-06-25T13:28:22.071Z,34.12
2016-06-25T13:29:22.707Z,34.15
2016-06-25T13:30:22.120Z,34.05
2016-06-25T13:31:22.139Z,34.13
2016-06-25T13:32:22.195Z,34.3
2016-06-25T13:33:22.852Z,34.37
2016-06-25T13:34:22.243Z,34.43
2016-06-25T13:35:22.878Z,34.34
2016-06-25T13:36:22.936Z,34.46
2016-06-25T13:37:22.959Z,34.62
2016-06-25T13:38:22.364Z,34.64
2016-06-25T13:39:21.807Z,34.84
2016-06-25T13:40:23.051Z,34.89
2016-06-25T13:41:37.414Z,35.02
2016-06-25T13:42:22.503Z,35.16
2016-06-25T13:43:36.804Z,35.45
2016-06-25T13:44:22.575Z,35.26
2016-06-25T13:45:22.601Z,35.45
2016-06-25T13:46:23.252Z,35.34
2016-06-25T13:47:22.665Z,35.1
2016-06-25T13:48:22.701Z,35.1
2016-06-25T13:49:23.341Z,35.25
2016-06-25T13:50:23.378Z,35.14
2016-06-25T13:51:23.396Z,35.19